Time;durP1;ratioP1;P1;durP2;ratioP2;P2;SDS_P1;SDS_P2;PMS_P1;PMS_P2;Temp;Humidity;BMP_temperature;BMP_pressure;BME280_temperature;BME280_humidity;BME280_pressure;Samples;Min_cycle;Max_cycle;Signal;HPM_P1;HPM_P2
2023/08/22 00:01:16;;;;;;;6.53;5.85;;;;;;;24.37;100.00;98410.84;5056595;28;20692;-77
2023/08/22 00:03:43;;;;;;;6.47;5.70;;;;;;;24.29;100.00;98418.91;5056868;28;20241;-77
2023/08/22 00:06:10;;;;;;;6.20;5.13;;;;;;;24.24;100.00;98414.34;5053132;28;20202;-77
2023/08/22 00:08:37;;;;;;;8.45;6.00;;;;;;;24.20;100.00;98409.81;5037094;28;20226;-77
2023/08/22 00:11:03;;;;;;;6.57;5.97;;;;;;;24.19;100.00;98409.00;5044625;28;20207;-77
2023/08/22 00:13:30;;;;;;;5.93;5.38;;;;;;;24.34;100.00;98413.38;5056523;28;20212;-77
2023/08/22 00:16:00;;;;;;;6.63;5.43;;;;;;;24.36;100.00;98411.16;5056932;28;20225;-76
2023/08/22 00:18:27;;;;;;;8.50;5.38;;;;;;;24.38;100.00;98415.19;5056461;28;20198;-77
2023/08/22 00:20:53;;;;;;;5.38;4.97;;;;;;;24.23;100.00;98411.91;5056906;28;20211;-77
2023/08/22 00:23:20;;;;;;;6.55;5.43;;;;;;;24.24;100.00;98406.19;5056857;28;20209;-76
2023/08/22 00:25:46;;;;;;;6.63;5.18;;;;;;;24.27;100.00;98407.50;5037187;28;20221;-76
2023/08/22 00:28:14;;;;;;;6.18;5.15;;;;;;;24.18;100.00;98403.84;5036457;28;20673;-77
2023/08/22 00:30:40;;;;;;;6.32;5.70;;;;;;;24.32;100.00;98397.38;5036806;28;20272;-76
2023/08/22 00:33:07;;;;;;;5.82;5.20;;;;;;;24.27;100.00;98404.78;5055394;28;20205;-77
2023/08/22 00:35:33;;;;;;;5.95;5.10;;;;;;;24.14;100.00;98397.41;5056184;28;20225;-77
2023/08/22 00:37:59;;;;;;;6.15;5.55;;;;;;;24.24;100.00;98399.97;5056890;28;20197;-77
2023/08/22 00:40:26;;;;;;;5.38;4.78;;;;;;;24.19;100.00;98400.84;5056056;28;20229;-77
2023/08/22 00:42:52;;;;;;;6.57;5.05;;;;;;;24.08;100.00;98398.59;5056454;28;20327;-76
2023/08/22 00:45:18;;;;;;;5.75;5.25;;;;;;;24.18;100.00;98393.00;5056204;28;20197;-76
2023/08/22 00:47:45;;;;;;;7.32;5.57;;;;;;;24.19;100.00;98394.63;5055282;28;20697;-76
2023/08/22 00:50:11;;;;;;;5.47;4.97;;;;;;;24.08;100.00;98393.16;5056257;28;20228;-77
2023/08/22 00:52:38;;;;;;;6.93;5.47;;;;;;;24.05;100.00;98396.47;5055630;28;20571;-77
2023/08/22 00:55:05;;;;;;;5.40;4.90;;;;;;;24.04;100.00;98387.53;5055317;28;20707;-77
2023/08/22 00:57:31;;;;;;;6.38;5.53;;;;;;;23.89;100.00;98397.81;5056222;28;20209;-77
2023/08/22 00:59:59;;;;;;;6.75;5.13;;;;;;;23.90;100.00;98394.00;5055897;28;20225;-77
2023/08/22 01:02:25;;;;;;;6.30;5.10;;;;;;;23.84;100.00;98400.59;5054956;28;20640;-77
2023/08/22 01:04:52;;;;;;;8.00;5.40;;;;;;;23.79;100.00;98398.75;5055661;28;20205;-76
2023/08/22 01:07:41;;;;;;;5.25;4.75;;;;;;;23.76;100.00;98390.41;5055675;28;20666;-77
2023/08/22 01:10:15;;;;;;;7.28;5.70;;;;;;;23.89;100.00;98387.75;5052009;28;20214;-76
2023/08/22 01:12:59;;;;;;;6.38;4.78;;;;;;;23.76;100.00;98391.22;5055395;28;20279;-77
2023/08/22 01:15:28;;;;;;;5.43;4.90;;;;;;;23.74;100.00;98392.63;5055795;28;20216;-77
2023/08/22 01:17:57;;;;;;;6.63;5.93;;;;;;;23.63;100.00;98391.16;5055852;28;20209;-77
2023/08/22 01:20:24;;;;;;;6.97;5.95;;;;;;;23.63;100.00;98391.16;5055689;28;20572;-76
2023/08/22 01:22:51;;;;;;;6.72;5.45;;;;;;;23.60;100.00;98391.75;5055513;28;20205;-76
2023/08/22 01:25:18;;;;;;;6.55;5.70;;;;;;;23.59;100.00;98381.97;5055725;28;20224;-77
2023/08/22 01:27:52;;;;;;;7.70;6.18;;;;;;;23.62;100.00;98387.66;5055394;28;20704;-77
2023/08/22 01:30:33;;;;;;;7.60;6.50;;;;;;;23.59;100.00;98385.50;5055584;28;20229;-77
2023/08/22 01:33:07;;;;;;;6.93;6.10;;;;;;;23.59;100.00;98384.69;5055278;28;20655;-76
2023/08/22 01:35:36;;;;;;;6.65;6.03;;;;;;;23.49;100.00;98384.84;5037499;28;20213;-76
2023/08/22 01:38:04;;;;;;;6.30;5.70;;;;;;;23.50;100.00;98383.75;5029020;28;20682;-77
2023/08/22 01:40:32;;;;;;;6.65;5.90;;;;;;;23.50;100.00;98386.47;5055054;28;20240;-77
2023/08/22 01:42:59;;;;;;;6.78;6.05;;;;;;;23.45;100.00;98392.78;5055732;28;20205;-77
2023/08/22 01:45:25;;;;;;;8.13;6.30;;;;;;;23.46;100.00;98388.13;5055375;28;20205;-77
2023/08/22 01:47:52;;;;;;;8.50;6.88;;;;;;;23.46;100.00;98388.13;5045933;28;20209;-77
2023/08/22 01:50:18;;;;;;;7.28;6.57;;;;;;;23.43;100.00;98386.81;5034964;28;20226;-77
2023/08/22 01:52:44;;;;;;;6.95;6.35;;;;;;;23.52;100.00;98392.41;5035284;28;20212;-77
2023/08/22 01:55:12;;;;;;;7.18;6.47;;;;;;;23.38;100.00;98375.25;5035142;28;20221;-77
2023/08/22 01:57:38;;;;;;;7.55;6.82;;;;;;;23.32;100.00;98373.69;5039996;28;20201;-77
2023/08/22 02:00:07;;;;;;;6.88;6.38;;;;;;;23.32;100.00;98369.09;5053357;28;20221;-76
2023/08/22 02:02:33;;;;;;;8.13;7.03;;;;;;;23.30;100.00;98368.59;5055060;28;20233;-77
2023/08/22 02:04:59;;;;;;;8.25;7.43;;;;;;;23.37;100.00;98379.88;5054722;28;20206;-76
2023/08/22 02:07:26;;;;;;;7.38;6.68;;;;;;;23.35;100.00;98375.84;5051024;28;20645;-77
2023/08/22 02:09:52;;;;;;;8.38;7.45;;;;;;;23.27;100.00;98374.59;5034612;28;20317;-76
2023/08/22 02:12:19;;;;;;;9.07;7.25;;;;;;;23.25;100.00;98379.47;5034592;28;20206;-76
2023/08/22 02:14:45;;;;;;;7.93;7.20;;;;;;;23.06;100.00;98375.13;5034793;28;20233;-77
2023/08/22 02:17:11;;;;;;;7.82;7.10;;;;;;;23.04;100.00;98377.31;5034782;28;20209;-76
2023/08/22 02:19:38;;;;;;;7.97;7.28;;;;;;;23.05;100.00;98368.88;5037410;28;20214;-77
2023/08/22 02:22:04;;;;;;;7.43;6.75;;;;;;;22.99;100.00;98371.94;5054323;28;20209;-77
2023/08/22 02:24:31;;;;;;;7.65;6.95;;;;;;;22.93;100.00;98370.41;5054600;28;20205;-76
2023/08/22 02:26:57;;;;;;;7.85;7.15;;;;;;;22.92;100.00;98371.50;5054318;28;20208;-77
2023/08/22 02:29:23;;;;;;;7.45;6.72;;;;;;;22.97;100.00;98371.44;5054700;28;20225;-77
2023/08/22 02:31:50;;;;;;;7.68;6.78;;;;;;;22.91;100.00;98365.28;5055571;28;20209;-77
2023/08/22 02:34:16;;;;;;;7.22;6.45;;;;;;;22.85;100.00;98369.16;5056014;28;20209;-77
2023/08/22 02:36:42;;;;;;;7.53;6.40;;;;;;;22.78;100.00;98378.72;5040428;28;20221;-77
2023/08/22 02:39:09;;;;;;;9.48;6.93;;;;;;;22.84;100.00;98372.16;5035711;28;20233;-77
2023/08/22 02:41:35;;;;;;;8.32;6.28;;;;;;;22.85;100.00;98373.75;5036144;28;20198;-77
2023/08/22 02:44:02;;;;;;;7.18;6.45;;;;;;;22.82;100.00;98379.75;5042329;28;20198;-77
2023/08/22 02:46:28;;;;;;;8.13;7.32;;;;;;;22.88;100.00;98373.19;5055406;28;20201;-77
2023/08/22 02:48:54;;;;;;;8.60;7.82;;;;;;;22.92;100.00;98379.66;5055206;28;20750;-77
2023/08/22 02:51:21;;;;;;;9.35;8.40;;;;;;;22.93;100.00;98386.69;5055239;28;20227;-77
2023/08/22 02:53:47;;;;;;;10.13;7.80;;;;;;;22.92;100.00;98383.16;5050491;28;20207;-77
2023/08/22 02:56:13;;;;;;;8.48;7.78;;;;;;;22.95;100.00;98387.19;5034034;28;20226;-77
2023/08/22 02:58:40;;;;;;;9.15;8.25;;;;;;;22.94;100.00;98382.88;5033991;28;20232;-77
2023/08/22 03:01:07;;;;;;;9.52;8.48;;;;;;;22.92;100.00;98377.72;5033954;28;20213;-77
2023/08/22 03:03:34;;;;;;;9.93;8.93;;;;;;;22.87;100.00;98382.41;5034686;28;20310;-77
2023/08/22 03:06:01;;;;;;;9.65;8.75;;;;;;;22.84;100.00;98375.66;5052822;28;20205;-77
2023/08/22 03:08:28;;;;;;;10.40;9.00;;;;;;;22.76;100.00;98372.78;5055157;28;20300;-77
2023/08/22 03:11:00;;;;;;;9.35;8.45;;;;;;;22.70;100.00;98377.44;5054546;28;20213;-77
2023/08/22 03:13:28;;;;;;;9.30;8.40;;;;;;;22.70;100.00;98369.31;5053420;28;20208;-77
2023/08/22 03:15:55;;;;;;;9.52;8.10;;;;;;;22.66;100.00;98368.28;5053374;28;20221;-77
2023/08/22 03:18:21;;;;;;;9.13;8.23;;;;;;;22.62;100.00;98369.97;5053331;28;20687;-77
2023/08/22 03:20:48;;;;;;;8.55;7.65;;;;;;;22.62;100.00;98371.88;5053562;28;20201;-77
2023/08/22 03:23:15;;;;;;;8.57;7.75;;;;;;;22.64;100.00;98378.59;5053591;28;20300;-77
2023/08/22 03:25:41;;;;;;;8.75;7.85;;;;;;;22.64;100.00;98372.38;5053156;28;20212;-76
2023/08/22 03:28:07;;;;;;;9.43;7.90;;;;;;;22.61;100.00;98367.53;5044244;28;20688;-77
2023/08/22 03:30:34;;;;;;;9.32;8.43;;;;;;;22.62;100.00;98377.28;5033490;28;20605;-77
2023/08/22 03:33:00;;;;;;;12.30;8.48;;;;;;;22.58;100.00;98370.81;5033348;28;20205;-76
2023/08/22 03:35:27;;;;;;;9.57;8.63;;;;;;;22.55;100.00;98372.22;5032953;28;20556;-77
2023/08/22 03:37:53;;;;;;;10.30;8.68;;;;;;;22.57;100.00;98370.00;5033424;28;20208;-77
2023/08/22 03:40:20;;;;;;;9.40;8.20;;;;;;;22.58;100.00;98378.94;5045966;28;20581;-77
2023/08/22 03:42:46;;;;;;;9.90;8.07;;;;;;;22.58;100.00;98370.81;5053175;28;20262;-77
2023/08/22 03:45:13;;;;;;;10.30;9.02;;;;;;;22.54;100.00;98365.19;5053199;28;20201;-77
2023/08/22 03:47:39;;;;;;;11.60;9.10;;;;;;;22.59;100.00;98369.72;5053327;28;20204;-77
2023/08/22 03:50:06;;;;;;;10.63;9.02;;;;;;;22.58;100.00;98368.94;5053142;28;20225;-77
2023/08/22 03:52:32;;;;;;;9.02;8.13;;;;;;;22.53;100.00;98363.56;5052920;28;20686;-77
2023/08/22 03:54:58;;;;;;;11.75;9.40;;;;;;;22.58;100.00;98368.94;5052933;28;20251;-77
2023/08/22 03:57:25;;;;;;;9.63;8.80;;;;;;;22.52;100.00;98367.34;5052525;28;20197;-77
2023/08/22 03:59:51;;;;;;;9.80;8.85;;;;;;;22.56;100.00;98367.59;5050518;28;20226;-76
2023/08/22 04:02:17;;;;;;;10.95;9.80;;;;;;;22.47;100.00;98369.34;5053052;28;20198;-77
2023/08/22 04:04:44;;;;;;;9.80;8.93;;;;;;;22.46;100.00;98365.81;5052186;28;20657;-76
2023/08/22 04:07:10;;;;;;;9.48;8.52;;;;;;;22.53;100.00;98360.03;5052756;28;20652;-77
2023/08/22 04:09:36;;;;;;;9.55;8.68;;;;;;;22.44;100.00;98361.72;5046206;28;20225;-77
2023/08/22 04:12:03;;;;;;;9.88;8.88;;;;;;;22.40;100.00;98366.09;5049763;28;20198;-77
2023/08/22 04:14:29;;;;;;;10.73;8.32;;;;;;;22.37;100.00;98361.25;5052583;28;20205;-77
2023/08/22 04:16:56;;;;;;;9.32;8.43;;;;;;;22.40;100.00;98366.09;5052583;28;20325;-77
2023/08/22 04:19:22;;;;;;;9.55;8.00;;;;;;;22.40;100.00;98374.25;5053208;28;20568;-76
2023/08/22 04:21:48;;;;;;;8.85;8.02;;;;;;;22.38;100.00;98379.94;5052517;28;20205;-77
2023/08/22 04:24:15;;;;;;;9.60;8.15;;;;;;;22.33;100.00;98373.75;5045136;28;20224;-76
2023/08/22 04:26:41;;;;;;;8.70;7.80;;;;;;;22.28;100.00;98379.22;5050635;28;20255;-77
2023/08/22 04:29:08;;;;;;;8.25;7.40;;;;;;;22.22;100.00;98377.66;5052520;28;20226;-77
2023/08/22 04:31:34;;;;;;;8.23;7.40;;;;;;;22.15;100.00;98380.72;5052640;28;20198;-77
2023/08/22 04:34:00;;;;;;;7.57;6.80;;;;;;;22.14;100.00;98386.41;5052865;28;20210;-77
2023/08/22 04:36:27;;;;;;;8.43;6.95;;;;;;;22.19;100.00;98381.75;5053005;28;20235;-76
2023/08/22 04:38:53;;;;;;;14.27;6.68;;;;;;;22.25;100.00;98394.16;5055913;28;20303;-77
2023/08/22 04:41:19;;;;;;;9.45;6.93;;;;;;;22.13;100.00;98390.22;5055911;28;20196;-77
2023/08/22 04:43:46;;;;;;;7.10;6.38;;;;;;;22.15;100.00;98396.97;5055031;28;20201;-76
2023/08/22 04:46:13;;;;;;;9.52;6.50;;;;;;;22.15;100.00;98399.66;5055158;28;20201;-75
2023/08/22 04:48:39;;;;;;;8.55;6.88;;;;;;;22.21;100.00;98401.22;5055266;28;20228;-75
2023/08/22 04:51:05;;;;;;;7.93;6.80;;;;;;;22.21;100.00;98406.66;5055113;28;20201;-76
2023/08/22 04:53:32;;;;;;;6.75;6.25;;;;;;;22.26;100.00;98405.81;5055924;28;20201;-76
2023/08/22 04:55:58;;;;;;;9.45;6.13;;;;;;;22.24;100.00;98400.66;5055851;28;20236;-76
2023/08/22 04:58:24;;;;;;;8.75;6.68;;;;;;;22.28;100.00;98400.91;5055768;28;20212;-76
2023/08/22 05:00:52;;;;;;;6.75;6.15;;;;;;;22.26;100.00;98403.91;5055919;28;20208;-76
2023/08/22 05:03:19;;;;;;;9.68;6.57;;;;;;;22.21;100.00;98395.03;5055488;28;20205;-78
2023/08/22 05:05:46;;;;;;;6.57;5.97;;;;;;;22.24;100.00;98408.78;5055474;28;20205;-76
2023/08/22 05:08:12;;;;;;;7.00;5.63;;;;;;;22.31;100.00;98406.56;5055309;28;20207;-76
2023/08/22 05:10:38;;;;;;;7.15;6.47;;;;;;;22.30;100.00;98414.97;5055546;28;20212;-76
2023/08/22 05:13:05;;;;;;;6.55;5.68;;;;;;;22.36;100.00;98413.84;5055640;28;20216;-76
2023/08/22 05:15:31;;;;;;;7.43;6.45;;;;;;;22.36;100.00;98421.97;5055215;28;20696;-76
2023/08/22 05:17:57;;;;;;;7.15;5.78;;;;;;;22.36;100.00;98411.13;5055685;28;20205;-76
2023/08/22 05:20:24;;;;;;;9.27;6.18;;;;;;;22.38;100.00;98417.88;5055006;28;20221;-73
2023/08/22 05:22:50;;;;;;;11.05;6.13;;;;;;;22.41;100.00;98416.50;5055482;28;20216;-73
2023/08/22 05:25:16;;;;;;;7.45;6.13;;;;;;;22.44;100.00;98415.91;5055397;28;20209;-73
2023/08/22 05:27:43;;;;;;;6.97;6.38;;;;;;;22.49;100.00;98421.31;5055242;28;20209;-73
2023/08/22 05:30:09;;;;;;;8.07;6.40;;;;;;;22.57;100.00;98413.38;5055252;28;20233;-73
2023/08/22 05:32:36;;;;;;;7.57;6.80;;;;;;;22.65;100.00;98412.75;5055324;28;20209;-76
2023/08/22 05:35:02;;;;;;;10.70;8.98;;;;;;;22.77;100.00;98415.06;5056620;28;20209;-76
2023/08/22 05:37:29;;;;;;;10.65;9.70;;;;;;;22.87;100.00;98417.63;5054408;28;20221;-76
2023/08/22 05:39:55;;;;;;;10.82;9.73;;;;;;;22.89;100.00;98415.47;5054332;28;20237;-76
2023/08/22 05:42:23;;;;;;;13.05;10.13;;;;;;;22.99;100.00;98409.91;5054533;28;20205;-76
2023/08/22 05:44:49;;;;;;;11.63;10.05;;;;;;;23.06;100.00;98411.16;5054763;28;20211;-76
2023/08/22 05:47:15;;;;;;;12.10;9.73;;;;;;;23.12;100.00;98415.47;5054687;28;20202;-77
2023/08/22 05:49:43;;;;;;;11.30;10.18;;;;;;;23.15;100.00;98417.56;5055048;28;20225;-76
2023/08/22 05:52:10;;;;;;;12.50;9.93;;;;;;;23.24;100.00;98417.78;5054926;28;20208;-76
2023/08/22 05:54:36;;;;;;;11.90;10.07;;;;;;;23.29;100.00;98417.72;5055043;28;20209;-76
2023/08/22 05:57:03;;;;;;;10.45;9.40;;;;;;;23.44;100.00;98414.78;5054558;28;20225;-77
2023/08/22 05:59:29;;;;;;;12.38;9.60;;;;;;;23.38;100.00;98421.38;5054730;28;20351;-73
2023/08/22 06:01:56;;;;;;;10.50;9.02;;;;;;;23.48;100.00;98421.25;5054472;28;20219;-73
2023/08/22 06:04:22;;;;;;;13.50;10.07;;;;;;;23.50;100.00;98419.03;5054265;28;20209;-73
2023/08/22 06:06:49;;;;;;;10.93;9.95;;;;;;;23.57;100.00;98425.69;5054604;28;20205;-73
2023/08/22 06:09:15;;;;;;;12.20;9.30;;;;;;;23.66;100.00;98423.94;5054009;28;20312;-73
2023/08/22 06:11:41;;;;;;;9.60;8.70;;;;;;;23.70;100.00;98422.25;5054646;28;20238;-73
2023/08/22 06:14:07;;;;;;;10.18;8.73;;;;;;;23.80;100.00;98427.56;5054541;28;20207;-73
2023/08/22 06:16:34;;;;;;;9.55;8.52;;;;;;;23.83;100.00;98421.50;5054154;28;20232;-73
2023/08/22 06:19:03;;;;;;;12.15;9.88;;;;;;;23.87;100.00;98427.97;5053194;28;20271;-73
2023/08/22 06:21:29;;;;;;;13.05;10.13;;;;;;;23.89;100.00;98436.66;5054039;28;20211;-73
2023/08/22 06:23:57;;;;;;;12.18;9.43;;;;;;;23.95;100.00;98426.53;5054063;28;20205;-73
2023/08/22 06:26:23;;;;;;;12.45;9.73;;;;;;;24.01;100.00;98418.00;5054025;28;20198;-73
2023/08/22 06:28:50;;;;;;;10.32;9.38;;;;;;;24.04;100.00;98417.41;5053462;28;20635;-73
2023/08/22 06:31:16;;;;;;;12.52;9.02;;;;;;;24.05;100.00;98419.03;5053588;28;20274;-73
2023/08/22 06:33:43;;;;;;;13.18;9.88;;;;;;;24.12;100.00;98414.03;5053581;28;20202;-73
2023/08/22 06:36:09;;;;;;;11.50;8.48;;;;;;;24.20;100.00;98413.31;5053424;28;20225;-74
2023/08/22 06:38:35;;;;;;;9.82;8.65;;;;;;;24.24;100.00;98414.34;5053430;28;20741;-73
2023/08/22 06:41:06;;;;;;;10.32;8.75;;;;;;;24.33;100.00;98417.22;5053900;28;20209;-74
2023/08/22 06:43:33;;;;;;;9.27;7.97;;;;;;;24.34;100.00;98416.09;5051858;28;20660;-73
2023/08/22 06:46:00;;;;;;;12.18;8.75;;;;;;;24.33;100.00;98409.84;5051943;28;20229;-73
2023/08/22 06:48:27;;;;;;;10.95;8.00;;;;;;;24.47;100.00;98418.03;5052160;28;20212;-73
2023/08/22 06:50:54;;;;;;;10.00;8.27;;;;;;;24.49;100.00;98424.78;5052689;28;20697;-73
2023/08/22 06:53:20;;;;;;;8.02;7.18;;;;;;;24.61;100.00;98424.31;5053118;28;20292;-73
2023/08/22 06:55:49;;;;;;;11.80;7.05;;;;;;;24.70;100.00;98427.97;5052688;28;20207;-73
2023/08/22 06:58:16;;;;;;;8.18;7.38;;;;;;;24.59;100.00;98432.78;5053154;28;20216;-73
2023/08/22 07:00:44;;;;;;;9.05;7.35;;;;;;;24.67;100.00;98428.56;5052642;28;20676;-73
2023/08/22 07:03:10;;;;;;;10.00;7.30;;;;;;;24.78;100.00;98430.00;5053733;28;20204;-73
2023/08/22 07:05:36;;;;;;;7.97;7.18;;;;;;;24.87;100.00;98428.97;5053537;28;20212;-73
2023/08/22 07:08:03;;;;;;;8.73;7.05;;;;;;;25.11;100.00;98443.16;5053326;28;20669;-74
2023/08/22 07:10:29;;;;;;;9.02;6.60;;;;;;;25.27;100.00;98438.25;5053108;28;20594;-73
2023/08/22 07:12:56;;;;;;;6.78;5.97;;;;;;;25.40;100.00;98443.69;5053211;28;20209;-73
2023/08/22 07:15:22;;;;;;;6.95;6.25;;;;;;;25.39;100.00;98444.00;5053354;28;20207;-73
2023/08/22 07:17:48;;;;;;;8.38;5.35;;;;;;;25.28;100.00;98448.06;5053278;28;20234;-73
2023/08/22 07:20:15;;;;;;;7.30;5.43;;;;;;;25.51;100.00;98449.72;5053252;28;20224;-73
2023/08/22 07:22:41;;;;;;;6.15;5.50;;;;;;;25.41;100.00;98444.50;5053331;28;20216;-73
2023/08/22 07:25:08;;;;;;;8.77;6.30;;;;;;;25.40;100.00;98446.41;5052690;28;20527;-73
2023/08/22 07:27:34;;;;;;;7.45;5.78;;;;;;;25.41;100.00;98439.03;5053079;28;20287;-73
2023/08/22 07:30:00;;;;;;;7.65;5.53;;;;;;;25.48;100.00;98442.16;5053016;28;20261;-74
2023/08/22 07:32:27;;;;;;;8.93;6.22;;;;;;;25.46;100.00;98442.47;5053105;28;20201;-73
2023/08/22 07:34:53;;;;;;;8.38;6.20;;;;;;;25.57;100.00;98448.50;5053174;28;20212;-73
2023/08/22 07:37:19;;;;;;;9.00;5.75;;;;;;;25.55;100.00;98453.47;5052810;28;20233;-73
2023/08/22 07:39:46;;;;;;;7.85;5.65;;;;;;;25.76;100.00;98451.88;5052868;28;20265;-73
2023/08/22 07:42:12;;;;;;;6.68;6.07;;;;;;;25.84;100.00;98441.06;5053171;28;20205;-73
2023/08/22 07:44:39;;;;;;;8.45;5.85;;;;;;;25.86;100.00;98448.91;5053091;28;20213;-73
2023/08/22 07:47:05;;;;;;;8.38;5.65;;;;;;;26.10;100.00;98449.47;5053381;28;20207;-73
2023/08/22 07:49:32;;;;;;;5.85;5.13;;;;;;;26.10;100.00;98454.94;5053215;28;20225;-73
2023/08/22 07:51:58;;;;;;;5.50;4.95;;;;;;;26.11;100.00;98453.81;5053157;28;20213;-73
2023/08/22 07:54:24;;;;;;;6.35;4.75;;;;;;;26.20;100.00;98457.41;5053219;28;20314;-73
2023/08/22 07:56:51;;;;;;;8.13;5.35;;;;;;;26.35;100.00;98460.56;5053083;28;20229;-73
2023/08/22 07:59:17;;;;;;;8.45;5.03;;;;;;;26.60;100.00;98459.16;5053080;28;20225;-73
2023/08/22 08:01:44;;;;;;;5.72;4.97;;;;;;;26.62;100.00;98455.00;5053107;28;20207;-73
2023/08/22 08:04:10;;;;;;;5.45;4.90;;;;;;;26.72;100.00;98453.91;5052898;28;20259;-73
2023/08/22 08:06:37;;;;;;;6.60;5.65;;;;;;;26.59;100.00;98454.81;5053062;28;20217;-73
2023/08/22 08:09:04;;;;;;;6.50;5.90;;;;;;;26.65;100.00;98448.09;5052943;28;20236;-73
2023/08/22 08:11:30;;;;;;;5.97;5.38;;;;;;;26.78;100.00;98453.44;5054976;28;20248;-73
2023/08/22 08:13:57;;;;;;;7.35;5.70;;;;;;;26.85;100.00;98453.00;5056796;28;20213;-73
2023/08/22 08:16:24;;;;;;;7.45;5.40;;;;;;;26.87;100.00;98451.56;5057093;28;20246;-73
2023/08/22 08:18:54;;;;;;;7.35;5.25;;;;;;;26.93;97.53;98444.06;5056957;28;20604;-73
2023/08/22 08:21:21;;;;;;;5.68;5.07;;;;;;;27.19;96.53;98453.19;5057025;28;20212;-73
2023/08/22 08:23:48;;;;;;;5.65;5.07;;;;;;;27.31;95.95;98449.84;5056697;28;20205;-73
2023/08/22 08:26:14;;;;;;;6.35;4.72;;;;;;;27.49;96.02;98457.72;5056666;28;20603;-73
2023/08/22 08:28:41;;;;;;;6.65;5.20;;;;;;;27.57;94.21;98456.94;5056492;28;20282;-73
2023/08/22 08:31:07;;;;;;;6.05;4.70;;;;;;;27.71;93.01;98456.81;5056487;28;20231;-73
2023/08/22 08:33:33;;;;;;;6.10;4.85;;;;;;;27.57;94.02;98454.22;5056390;28;20205;-73
2023/08/22 08:36:00;;;;;;;5.30;4.80;;;;;;;27.59;95.02;98460.19;5056408;28;20211;-73
2023/08/22 08:38:26;;;;;;;8.00;4.80;;;;;;;27.54;94.00;98454.06;5056075;28;20221;-73
2023/08/22 08:40:59;;;;;;;5.57;4.70;;;;;;;27.54;93.74;98452.13;5055774;28;20212;-73
2023/08/22 08:43:26;;;;;;;5.75;5.18;;;;;;;27.30;94.58;98454.47;5055792;28;20244;-73
2023/08/22 08:45:52;;;;;;;7.60;4.90;;;;;;;27.25;95.68;98451.91;5055883;28;20205;-73
2023/08/22 08:48:20;;;;;;;7.63;4.78;;;;;;;27.50;94.19;98461.28;5055647;28;20552;-73
2023/08/22 08:50:48;;;;;;;5.47;4.97;;;;;;;27.71;95.60;98459.56;5056145;28;20205;-73
2023/08/22 08:53:14;;;;;;;4.63;4.20;;;;;;;27.65;90.48;98456.16;5055572;28;20576;-73
2023/08/22 08:55:41;;;;;;;5.07;4.18;;;;;;;27.66;90.79;98449.56;5056041;28;20218;-73
2023/08/22 08:58:08;;;;;;;5.05;4.10;;;;;;;27.74;89.99;98451.53;5056045;28;20275;-73
2023/08/22 09:00:35;;;;;;;4.18;3.83;;;;;;;28.00;89.33;98452.38;5055805;28;20221;-73
2023/08/22 09:03:02;;;;;;;5.00;3.40;;;;;;;27.72;84.57;98450.22;5055901;28;20205;-73
2023/08/22 09:05:29;;;;;;;4.35;3.35;;;;;;;27.93;84.93;98452.03;5056081;28;20233;-73
2023/08/22 09:07:56;;;;;;;3.65;3.35;;;;;;;27.80;84.73;98447.53;5056092;28;20201;-73
2023/08/22 09:10:35;;;;;;;9.95;4.20;;;;;;;27.89;86.93;98450.28;5055602;28;20225;-73
2023/08/22 09:13:05;;;;;;;4.97;3.97;;;;;;;28.09;87.72;98450.44;5055228;28;20655;-73
2023/08/22 09:15:32;;;;;;;4.90;4.40;;;;;;;28.08;86.19;98451.53;5055382;28;20216;-73
2023/08/22 09:17:58;;;;;;;5.20;4.10;;;;;;;27.97;87.77;98444.81;5055599;28;20231;-73
2023/08/22 09:20:25;;;;;;;4.43;4.10;;;;;;;27.95;86.80;98438.88;5072762;28;20232;-74
2023/08/22 09:22:51;;;;;;;5.03;4.20;;;;;;;27.96;86.83;98450.59;5075239;28;20215;-73
2023/08/22 09:25:18;;;;;;;6.82;4.28;;;;;;;27.97;86.69;98438.53;5075334;28;20215;-73
2023/08/22 09:27:50;;;;;;;4.70;4.30;;;;;;;28.22;85.86;98438.50;5075328;28;20200;-73
2023/08/22 09:30:20;;;;;;;4.43;4.03;;;;;;;28.55;86.46;98441.53;5075899;28;20220;-73
2023/08/22 09:32:58;;;;;;;4.45;3.75;;;;;;;28.70;83.13;98433.59;5075559;28;20262;-72
2023/08/22 09:35:29;;;;;;;5.43;4.60;;;;;;;28.82;82.73;98431.00;5075071;28;20536;-72
2023/08/22 09:37:55;;;;;;;6.60;4.47;;;;;;;28.97;82.37;98430.44;5075029;28;20695;-72
2023/08/22 09:40:22;;;;;;;7.25;4.15;;;;;;;28.97;80.89;98432.38;5074915;28;20567;-73
2023/08/22 09:42:50;;;;;;;9.15;4.63;;;;;;;29.13;84.01;98423.31;5075408;28;20235;-73
2023/08/22 09:45:19;;;;;;;4.68;4.28;;;;;;;29.58;82.15;98429.03;5075193;28;20211;-73
2023/08/22 09:47:49;;;;;;;7.70;4.55;;;;;;;29.74;80.78;98422.63;5075237;28;20201;-72
2023/08/22 09:50:18;;;;;;;4.53;4.13;;;;;;;29.86;80.77;98411.72;5075130;28;20220;-73
2023/08/22 09:52:45;;;;;;;4.75;4.35;;;;;;;30.10;79.21;98417.31;5075007;28;20201;-73
2023/08/22 09:55:13;;;;;;;7.30;4.25;;;;;;;29.85;79.17;98421.06;5074700;28;20721;-73
2023/08/22 09:57:40;;;;;;;4.90;3.85;;;;;;;29.60;79.48;98416.59;5074873;28;20674;-73
2023/08/22 10:00:10;;;;;;;6.30;4.25;;;;;;;29.96;79.00;98416.81;5074877;28;20311;-73
2023/08/22 10:02:37;;;;;;;4.97;4.15;;;;;;;29.89;77.91;98418.47;5074881;28;20204;-73
2023/08/22 10:05:04;;;;;;;5.15;3.97;;;;;;;29.99;80.38;98420.81;5074879;28;20568;-73
2023/08/22 10:07:30;;;;;;;6.15;3.95;;;;;;;30.00;77.70;98417.75;5074747;28;20207;-73
2023/08/22 10:09:57;;;;;;;4.07;3.78;;;;;;;30.06;77.20;98421.06;5074450;28;20610;-73
2023/08/22 10:12:24;;;;;;;4.22;3.85;;;;;;;29.68;77.53;98415.75;5075146;28;20204;-73
2023/08/22 10:14:58;;;;;;;7.40;3.88;;;;;;;29.93;78.29;98413.94;5074332;28;20213;-73
2023/08/22 10:17:28;;;;;;;7.07;3.88;;;;;;;30.10;78.85;98417.31;5074567;28;20247;-73
2023/08/22 10:20:21;;;;;;;5.18;3.97;;;;;;;30.20;78.25;98416.91;5074045;28;20232;-72
2023/08/22 10:22:47;;;;;;;6.32;4.10;;;;;;;30.11;74.86;98418.91;5070490;28;20208;-73
2023/08/22 10:25:13;;;;;;;5.43;4.07;;;;;;;30.60;75.63;98417.97;5074321;28;20589;-73
2023/08/22 10:27:47;;;;;;;8.02;4.38;;;;;;;30.64;74.37;98409.84;5075067;28;20200;-73
2023/08/22 10:30:13;;;;;;;5.25;4.20;;;;;;;30.32;75.39;98407.94;5074276;28;20242;-73
2023/08/22 10:32:41;;;;;;;6.13;4.57;;;;;;;29.90;74.97;98404.44;5074616;28;20258;-72
2023/08/22 10:35:20;;;;;;;4.57;3.88;;;;;;;29.91;75.00;98406.03;5073487;28;20201;-74
2023/08/22 10:37:49;;;;;;;6.00;3.67;;;;;;;30.16;74.99;98415.22;5074223;28;20208;-74
2023/08/22 10:40:28;;;;;;;5.93;4.22;;;;;;;30.48;75.64;98401.47;5074113;28;20606;-73
2023/08/22 10:43:06;;;;;;;5.20;4.00;;;;;;;30.61;72.79;98407.78;5074224;28;20246;-73
2023/08/22 10:45:40;;;;;;;4.22;3.83;;;;;;;30.60;73.16;98409.72;5074036;28;20201;-73
2023/08/22 10:48:14;;;;;;;5.03;3.88;;;;;;;30.18;73.75;98411.00;5073914;28;20210;-74
2023/08/22 10:50:42;;;;;;;5.43;3.63;;;;;;;30.50;74.04;98404.69;5074139;28;20189;-73
2023/08/22 10:53:25;;;;;;;7.05;4.18;;;;;;;30.87;73.44;98403.63;5073806;28;20215;-73
2023/08/22 10:55:51;;;;;;;7.43;4.15;;;;;;;30.35;71.12;98399.84;5073469;28;20239;-74
2023/08/22 10:58:40;;;;;;;5.03;4.15;;;;;;;30.42;70.98;98397.34;5073695;28;20224;-73
2023/08/22 11:01:16;;;;;;;4.65;4.07;;;;;;;30.37;72.38;98400.28;5073616;28;20195;-74
2023/08/22 11:03:43;;;;;;;6.28;4.30;;;;;;;30.52;72.40;98388.66;5073551;28;20601;-74
2023/08/22 11:06:19;;;;;;;5.53;4.25;;;;;;;30.44;70.79;98384.06;5073273;28;20664;-73
2023/08/22 11:08:46;;;;;;;7.00;4.38;;;;;;;30.93;71.54;98382.22;5073659;28;20231;-74
2023/08/22 11:11:19;;;;;;;96.05;87.35;;;;;;;30.77;68.52;98397.78;5073601;28;20230;-72
2023/08/22 11:13:46;;;;;;;21.83;19.63;;;;;;;30.94;69.39;98386.56;5073593;28;20193;-72
2023/08/22 11:16:15;;;;;;;5.63;5.22;;;;;;;31.24;68.77;98377.00;5073270;28;20683;-72
2023/08/22 11:18:42;;;;;;;4.97;4.20;;;;;;;31.43;65.01;98391.72;5073146;28;20228;-72
2023/08/22 11:21:10;;;;;;;6.97;6.18;;;;;;;31.05;66.34;98384.97;5073396;28;20204;-72
2023/08/22 11:23:38;;;;;;;8.07;7.20;;;;;;;31.33;64.34;98392.19;5073512;28;20212;-72
2023/08/22 11:26:08;;;;;;;25.73;23.23;;;;;;;31.02;65.04;98385.66;5073126;28;20628;-72
2023/08/22 11:28:35;;;;;;;12.85;11.60;;;;;;;30.95;65.13;98382.69;5073108;28;20227;-72